sensor_id;sensor_type;location;lat;lon;timestamp;temperature;humidity
35425;DHT22;21537;48.226;16.400;2022-08-24T00:00:20;18.80;99.90
35425;DHT22;21537;48.226;16.400;2022-08-24T00:02:47;18.80;99.90
35425;DHT22;21537;48.226;16.400;2022-08-24T00:05:15;18.80;99.90
35425;DHT22;21537;48.226;16.400;2022-08-24T00:07:41;18.80;99.90
35425;DHT22;21537;48.226;16.400;2022-08-24T00:10:10;18.80;99.90
35425;DHT22;21537;48.226;16.400;2022-08-24T00:12:36;18.80;99.90
35425;DHT22;21537;48.226;16.400;2022-08-24T00:15:04;18.80;99.90
35425;DHT22;21537;48.226;16.400;2022-08-24T00:17:30;18.80;99.90
35425;DHT22;21537;48.226;16.400;2022-08-24T00:19:56;18.80;99.90
35425;DHT22;21537;48.226;16.400;2022-08-24T00:22:21;18.80;99.90
35425;DHT22;21537;48.226;16.400;2022-08-24T00:24:47;18.80;99.90
35425;DHT22;21537;48.226;16.400;2022-08-24T00:27:13;18.80;99.90
35425;DHT22;21537;48.226;16.400;2022-08-24T00:29:39;18.80;99.90
35425;DHT22;21537;48.226;16.400;2022-08-24T00:32:05;18.80;99.90
35425;DHT22;21537;48.226;16.400;2022-08-24T00:34:31;18.80;99.90
35425;DHT22;21537;48.226;16.400;2022-08-24T00:36:57;18.90;99.90
35425;DHT22;21537;48.226;16.400;2022-08-24T00:39:23;18.90;99.90
35425;DHT22;21537;48.226;16.400;2022-08-24T00:41:50;18.90;99.90
35425;DHT22;21537;48.226;16.400;2022-08-24T00:44:17;18.90;99.90
35425;DHT22;21537;48.226;16.400;2022-08-24T00:49:39;18.90;99.90
35425;DHT22;21537;48.226;16.400;2022-08-24T00:54:40;19.00;99.90
35425;DHT22;21537;48.226;16.400;2022-08-24T00:57:10;19.00;99.90
35425;DHT22;21537;48.226;16.400;2022-08-24T00:59:55;18.90;99.90
35425;DHT22;21537;48.226;16.400;2022-08-24T01:02:28;19.00;99.90
35425;DHT22;21537;48.226;16.400;2022-08-24T01:04:58;19.00;99.90
35425;DHT22;21537;48.226;16.400;2022-08-24T01:07:26;19.00;99.90
35425;DHT22;21537;48.226;16.400;2022-08-24T01:09:56;19.00;99.90
35425;DHT22;21537;48.226;16.400;2022-08-24T01:12:23;19.00;99.90
35425;DHT22;21537;48.226;16.400;2022-08-24T01:14:51;19.00;99.90
35425;DHT22;21537;48.226;16.400;2022-08-24T01:17:17;18.90;99.90
35425;DHT22;21537;48.226;16.400;2022-08-24T01:20:03;19.00;99.90
35425;DHT22;21537;48.226;16.400;2022-08-24T01:22:59;18.90;99.90
35425;DHT22;21537;48.226;16.400;2022-08-24T01:25:29;18.90;99.90
35425;DHT22;21537;48.226;16.400;2022-08-24T01:27:59;18.90;99.90
35425;DHT22;21537;48.226;16.400;2022-08-24T01:30:25;18.90;99.90
35425;DHT22;21537;48.226;16.400;2022-08-24T01:32:57;18.90;99.90
35425;DHT22;21537;48.226;16.400;2022-08-24T01:35:23;18.90;99.90
35425;DHT22;21537;48.226;16.400;2022-08-24T01:37:50;18.90;99.90
35425;DHT22;21537;48.226;16.400;2022-08-24T01:40:18;18.90;99.90
35425;DHT22;21537;48.226;16.400;2022-08-24T01:42:49;18.90;99.90
35425;DHT22;21537;48.226;16.400;2022-08-24T01:45:16;18.90;99.90
35425;DHT22;21537;48.226;16.400;2022-08-24T01:47:42;18.90;99.90
35425;DHT22;21537;48.226;16.400;2022-08-24T01:50:08;18.90;99.90
35425;DHT22;21537;48.226;16.400;2022-08-24T01:52:34;18.90;99.90
35425;DHT22;21537;48.226;16.400;2022-08-24T01:55:06;18.90;99.90
35425;DHT22;21537;48.226;16.400;2022-08-24T01:57:32;18.90;99.90
35425;DHT22;21537;48.226;16.400;2022-08-24T01:59:58;19.00;99.90
35425;DHT22;21537;48.226;16.400;2022-08-24T02:02:27;19.00;99.90
35425;DHT22;21537;48.226;16.400;2022-08-24T02:04:54;19.00;99.90
35425;DHT22;21537;48.226;16.400;2022-08-24T02:07:20;19.00;99.90
35425;DHT22;21537;48.226;16.400;2022-08-24T02:09:48;18.90;99.90
35425;DHT22;21537;48.226;16.400;2022-08-24T02:12:15;19.00;99.90
35425;DHT22;21537;48.226;16.400;2022-08-24T02:14:41;19.00;99.90
35425;DHT22;21537;48.226;16.400;2022-08-24T02:17:09;19.00;99.90
35425;DHT22;21537;48.226;16.400;2022-08-24T02:19:35;19.00;99.90
35425;DHT22;21537;48.226;16.400;2022-08-24T02:22:02;18.90;99.90
35425;DHT22;21537;48.226;16.400;2022-08-24T02:24:29;18.90;99.90
35425;DHT22;21537;48.226;16.400;2022-08-24T02:26:56;18.90;99.90
35425;DHT22;21537;48.226;16.400;2022-08-24T02:29:22;18.90;99.90
35425;DHT22;21537;48.226;16.400;2022-08-24T02:31:49;19.00;99.90
35425;DHT22;21537;48.226;16.400;2022-08-24T02:34:15;18.90;99.90
35425;DHT22;21537;48.226;16.400;2022-08-24T02:36:41;18.90;99.90
35425;DHT22;21537;48.226;16.400;2022-08-24T02:39:07;18.90;99.90
35425;DHT22;21537;48.226;16.400;2022-08-24T02:41:35;18.90;99.90
35425;DHT22;21537;48.226;16.400;2022-08-24T02:44:03;18.90;99.90
35425;DHT22;21537;48.226;16.400;2022-08-24T02:46:30;19.00;99.90
35425;DHT22;21537;48.226;16.400;2022-08-24T02:48:59;19.00;99.90
35425;DHT22;21537;48.226;16.400;2022-08-24T02:51:28;18.90;99.90
35425;DHT22;21537;48.226;16.400;2022-08-24T02:53:56;18.90;99.90
35425;DHT22;21537;48.226;16.400;2022-08-24T02:56:24;18.90;99.90
35425;DHT22;21537;48.226;16.400;2022-08-24T02:58:50;19.00;99.90
35425;DHT22;21537;48.226;16.400;2022-08-24T03:01:17;19.00;99.90
35425;DHT22;21537;48.226;16.400;2022-08-24T03:03:44;19.00;99.90
35425;DHT22;21537;48.226;16.400;2022-08-24T03:06:11;19.10;99.90
35425;DHT22;21537;48.226;16.400;2022-08-24T03:08:37;19.00;99.90
35425;DHT22;21537;48.226;16.400;2022-08-24T03:11:04;19.00;99.90
35425;DHT22;21537;48.226;16.400;2022-08-24T03:13:31;19.00;99.90
35425;DHT22;21537;48.226;16.400;2022-08-24T03:15:58;19.00;99.90
35425;DHT22;21537;48.226;16.400;2022-08-24T03:18:26;19.00;99.90
35425;DHT22;21537;48.226;16.400;2022-08-24T03:20:53;19.00;99.90
35425;DHT22;21537;48.226;16.400;2022-08-24T03:23:19;19.00;99.90
35425;DHT22;21537;48.226;16.400;2022-08-24T03:25:46;19.00;99.90
35425;DHT22;21537;48.226;16.400;2022-08-24T03:28:12;19.00;99.90
35425;DHT22;21537;48.226;16.400;2022-08-24T03:30:39;19.00;99.90
35425;DHT22;21537;48.226;16.400;2022-08-24T03:33:06;19.00;99.90
35425;DHT22;21537;48.226;16.400;2022-08-24T03:35:32;19.00;99.90
35425;DHT22;21537;48.226;16.400;2022-08-24T03:37:59;19.00;99.90
35425;DHT22;21537;48.226;16.400;2022-08-24T03:40:25;19.00;99.90
35425;DHT22;21537;48.226;16.400;2022-08-24T03:42:54;19.10;99.90
35425;DHT22;21537;48.226;16.400;2022-08-24T03:45:21;19.10;99.90
35425;DHT22;21537;48.226;16.400;2022-08-24T03:47:47;19.00;99.90
35425;DHT22;21537;48.226;16.400;2022-08-24T03:50:13;19.00;99.90
35425;DHT22;21537;48.226;16.400;2022-08-24T03:52:40;19.00;99.90
35425;DHT22;21537;48.226;16.400;2022-08-24T03:55:09;19.00;99.90
35425;DHT22;21537;48.226;16.400;2022-08-24T03:57:38;19.00;99.90
35425;DHT22;21537;48.226;16.400;2022-08-24T04:00:06;18.90;99.90
35425;DHT22;21537;48.226;16.400;2022-08-24T04:02:40;18.90;99.90
35425;DHT22;21537;48.226;16.400;2022-08-24T04:05:08;18.90;99.90
35425;DHT22;21537;48.226;16.400;2022-08-24T04:07:35;18.80;99.90
35425;DHT22;21537;48.226;16.400;2022-08-24T04:10:01;18.80;99.90
35425;DHT22;21537;48.226;16.400;2022-08-24T04:12:28;18.90;99.90
35425;DHT22;21537;48.226;16.400;2022-08-24T04:14:54;18.80;99.90
35425;DHT22;21537;48.226;16.400;2022-08-24T04:17:24;18.90;99.90
35425;DHT22;21537;48.226;16.400;2022-08-24T04:19:50;18.90;99.90
35425;DHT22;21537;48.226;16.400;2022-08-24T04:22:25;18.90;99.90
35425;DHT22;21537;48.226;16.400;2022-08-24T04:24:51;18.90;99.90
35425;DHT22;21537;48.226;16.400;2022-08-24T04:27:17;18.90;99.90
35425;DHT22;21537;48.226;16.400;2022-08-24T04:29:43;18.90;99.90
35425;DHT22;21537;48.226;16.400;2022-08-24T04:32:09;19.00;99.90
35425;DHT22;21537;48.226;16.400;2022-08-24T04:34:35;18.90;99.90
35425;DHT22;21537;48.226;16.400;2022-08-24T04:37:01;19.00;99.90
35425;DHT22;21537;48.226;16.400;2022-08-24T04:39:27;19.00;99.90
35425;DHT22;21537;48.226;16.400;2022-08-24T04:42:22;19.00;99.90
35425;DHT22;21537;48.226;16.400;2022-08-24T04:44:48;19.00;99.90
35425;DHT22;21537;48.226;16.400;2022-08-24T04:47:19;19.00;99.90
35425;DHT22;21537;48.226;16.400;2022-08-24T04:49:46;19.10;99.90
35425;DHT22;21537;48.226;16.400;2022-08-24T04:52:12;19.10;99.90
35425;DHT22;21537;48.226;16.400;2022-08-24T04:54:39;19.10;99.90
35425;DHT22;21537;48.226;16.400;2022-08-24T04:57:19;19.10;99.90
35425;DHT22;21537;48.226;16.400;2022-08-24T04:59:46;19.10;99.90
35425;DHT22;21537;48.226;16.400;2022-08-24T05:02:12;19.10;99.90
35425;DHT22;21537;48.226;16.400;2022-08-24T05:04:38;19.20;99.90
35425;DHT22;21537;48.226;16.400;2022-08-24T05:07:05;19.20;99.90
35425;DHT22;21537;48.226;16.400;2022-08-24T05:09:32;19.30;99.90
35425;DHT22;21537;48.226;16.400;2022-08-24T05:11:59;19.30;99.90
35425;DHT22;21537;48.226;16.400;2022-08-24T05:14:31;19.40;99.90
35425;DHT22;21537;48.226;16.400;2022-08-24T05:16:57;19.50;99.90
35425;DHT22;21537;48.226;16.400;2022-08-24T05:19:23;19.50;99.90
35425;DHT22;21537;48.226;16.400;2022-08-24T05:21:49;19.60;99.90
35425;DHT22;21537;48.226;16.400;2022-08-24T05:24:15;19.70;99.90
35425;DHT22;21537;48.226;16.400;2022-08-24T05:26:41;19.80;99.90
35425;DHT22;21537;48.226;16.400;2022-08-24T05:29:09;19.80;99.90
35425;DHT22;21537;48.226;16.400;2022-08-24T05:31:45;20.00;99.90
35425;DHT22;21537;48.226;16.400;2022-08-24T05:34:12;20.10;99.90
35425;DHT22;21537;48.226;16.400;2022-08-24T05:36:38;20.30;99.90
35425;DHT22;21537;48.226;16.400;2022-08-24T05:39:09;20.40;99.90
35425;DHT22;21537;48.226;16.400;2022-08-24T05:41:40;20.50;99.90
35425;DHT22;21537;48.226;16.400;2022-08-24T05:44:13;20.60;99.90
35425;DHT22;21537;48.226;16.400;2022-08-24T05:46:41;20.80;99.90
35425;DHT22;21537;48.226;16.400;2022-08-24T05:49:07;20.90;99.90
35425;DHT22;21537;48.226;16.400;2022-08-24T05:51:34;20.90;99.90
35425;DHT22;21537;48.226;16.400;2022-08-24T05:54:07;20.90;99.90
35425;DHT22;21537;48.226;16.400;2022-08-24T05:56:44;20.80;99.90
35425;DHT22;21537;48.226;16.400;2022-08-24T05:59:11;20.80;99.90
35425;DHT22;21537;48.226;16.400;2022-08-24T06:01:40;20.70;99.90
35425;DHT22;21537;48.226;16.400;2022-08-24T06:04:06;20.70;99.90
35425;DHT22;21537;48.226;16.400;2022-08-24T06:06:34;20.70;99.90
35425;DHT22;21537;48.226;16.400;2022-08-24T06:09:01;20.60;99.90
35425;DHT22;21537;48.226;16.400;2022-08-24T06:11:35;20.50;99.90
35425;DHT22;21537;48.226;16.400;2022-08-24T06:14:10;20.50;99.90
35425;DHT22;21537;48.226;16.400;2022-08-24T06:16:47;20.40;99.90
35425;DHT22;21537;48.226;16.400;2022-08-24T06:19:15;20.50;99.90
35425;DHT22;21537;48.226;16.400;2022-08-24T06:21:43;20.50;99.90
35425;DHT22;21537;48.226;16.400;2022-08-24T06:24:12;20.60;99.90
35425;DHT22;21537;48.226;16.400;2022-08-24T06:26:42;20.70;99.90
35425;DHT22;21537;48.226;16.400;2022-08-24T06:29:27;20.80;99.90
35425;DHT22;21537;48.226;16.400;2022-08-24T06:31:57;21.00;99.90
35425;DHT22;21537;48.226;16.400;2022-08-24T06:34:24;21.10;99.90
35425;DHT22;21537;48.226;16.400;2022-08-24T06:36:51;21.20;99.90
35425;DHT22;21537;48.226;16.400;2022-08-24T06:39:20;21.30;99.90
35425;DHT22;21537;48.226;16.400;2022-08-24T06:41:45;21.50;99.90
35425;DHT22;21537;48.226;16.400;2022-08-24T06:44:18;21.60;99.90
35425;DHT22;21537;48.226;16.400;2022-08-24T06:46:49;21.70;99.90
35425;DHT22;21537;48.226;16.400;2022-08-24T06:49:17;21.90;99.90
35425;DHT22;21537;48.226;16.400;2022-08-24T06:51:44;22.00;99.90
35425;DHT22;21537;48.226;16.400;2022-08-24T06:54:10;22.10;99.90
35425;DHT22;21537;48.226;16.400;2022-08-24T06:56:37;22.30;99.90
35425;DHT22;21537;48.226;16.400;2022-08-24T06:59:04;22.20;99.90
35425;DHT22;21537;48.226;16.400;2022-08-24T07:01:30;22.10;99.90
35425;DHT22;21537;48.226;16.400;2022-08-24T07:03:58;22.00;99.90
35425;DHT22;21537;48.226;16.400;2022-08-24T07:06:43;22.00;99.90
35425;DHT22;21537;48.226;16.400;2022-08-24T07:09:09;22.00;99.90
35425;DHT22;21537;48.226;16.400;2022-08-24T07:11:35;22.00;99.90
35425;DHT22;21537;48.226;16.400;2022-08-24T07:14:03;22.00;99.90
35425;DHT22;21537;48.226;16.400;2022-08-24T07:16:29;22.10;99.90
35425;DHT22;21537;48.226;16.400;2022-08-24T07:19:00;22.10;99.90
35425;DHT22;21537;48.226;16.400;2022-08-24T07:21:27;22.30;99.90
35425;DHT22;21537;48.226;16.400;2022-08-24T07:23:56;22.30;99.90
35425;DHT22;21537;48.226;16.400;2022-08-24T07:26:25;22.30;99.90
35425;DHT22;21537;48.226;16.400;2022-08-24T07:28:55;22.20;99.90
35425;DHT22;21537;48.226;16.400;2022-08-24T07:31:37;22.20;99.90
35425;DHT22;21537;48.226;16.400;2022-08-24T07:34:12;22.30;99.90
35425;DHT22;21537;48.226;16.400;2022-08-24T07:36:39;22.40;99.90
35425;DHT22;21537;48.226;16.400;2022-08-24T07:39:08;22.50;99.90
35425;DHT22;21537;48.226;16.400;2022-08-24T07:41:40;22.60;99.90
35425;DHT22;21537;48.226;16.400;2022-08-24T07:44:07;22.90;99.90
35425;DHT22;21537;48.226;16.400;2022-08-24T07:46:34;23.00;99.90
35425;DHT22;21537;48.226;16.400;2022-08-24T07:49:02;23.20;99.90
35425;DHT22;21537;48.226;16.400;2022-08-24T07:51:28;23.20;99.90
35425;DHT22;21537;48.226;16.400;2022-08-24T07:53:54;23.20;99.90
35425;DHT22;21537;48.226;16.400;2022-08-24T07:56:26;23.20;99.90
35425;DHT22;21537;48.226;16.400;2022-08-24T07:58:54;23.10;99.90
35425;DHT22;21537;48.226;16.400;2022-08-24T08:01:23;23.20;99.90
35425;DHT22;21537;48.226;16.400;2022-08-24T08:03:50;23.40;99.90
35425;DHT22;21537;48.226;16.400;2022-08-24T08:06:17;23.40;99.90
35425;DHT22;21537;48.226;16.400;2022-08-24T08:08:46;23.40;99.90
35425;DHT22;21537;48.226;16.400;2022-08-24T08:11:12;23.40;99.90
35425;DHT22;21537;48.226;16.400;2022-08-24T08:13:39;23.50;99.90
35425;DHT22;21537;48.226;16.400;2022-08-24T08:16:07;23.70;99.90
35425;DHT22;21537;48.226;16.400;2022-08-24T08:18:34;23.90;99.90
35425;DHT22;21537;48.226;16.400;2022-08-24T08:21:06;24.00;99.90
35425;DHT22;21537;48.226;16.400;2022-08-24T08:23:52;24.10;99.90
35425;DHT22;21537;48.226;16.400;2022-08-24T08:26:38;24.20;99.90
35425;DHT22;21537;48.226;16.400;2022-08-24T08:29:31;24.40;99.90
35425;DHT22;21537;48.226;16.400;2022-08-24T08:31:58;24.40;99.90
35425;DHT22;21537;48.226;16.400;2022-08-24T08:34:25;24.70;99.90
35425;DHT22;21537;48.226;16.400;2022-08-24T08:36:51;25.00;99.90
35425;DHT22;21537;48.226;16.400;2022-08-24T08:39:20;25.10;99.90
35425;DHT22;21537;48.226;16.400;2022-08-24T08:42:13;25.20;99.90
35425;DHT22;21537;48.226;16.400;2022-08-24T08:45:20;25.10;99.90
35425;DHT22;21537;48.226;16.400;2022-08-24T08:51:08;25.10;99.90
35425;DHT22;21537;48.226;16.400;2022-08-24T08:54:01;25.20;99.90
35425;DHT22;21537;48.226;16.400;2022-08-24T09:18:11;25.80;99.90
35425;DHT22;21537;48.226;16.400;2022-08-24T09:32:34;27.60;99.90
35425;DHT22;21537;48.226;16.400;2022-08-24T09:35:14;27.40;99.90
35425;DHT22;21537;48.226;16.400;2022-08-24T09:38:00;27.40;99.90
35425;DHT22;21537;48.226;16.400;2022-08-24T09:43:50;29.30;99.90
35425;DHT22;21537;48.226;16.400;2022-08-24T09:47:09;30.50;99.90
35425;DHT22;21537;48.226;16.400;2022-08-24T09:56:03;33.30;93.90
35425;DHT22;21537;48.226;16.400;2022-08-24T10:02:03;33.40;93.40
35425;DHT22;21537;48.226;16.400;2022-08-24T10:04:55;33.70;92.50
35425;DHT22;21537;48.226;16.400;2022-08-24T10:07:49;34.10;92.00
35425;DHT22;21537;48.226;16.400;2022-08-24T10:40:29;31.70;92.20
35425;DHT22;21537;48.226;16.400;2022-08-24T10:43:43;31.30;92.90
35425;DHT22;21537;48.226;16.400;2022-08-24T10:55:29;33.50;91.20
35425;DHT22;21537;48.226;16.400;2022-08-24T11:00:53;35.60;88.40
35425;DHT22;21537;48.226;16.400;2022-08-24T11:03:21;36.40;85.20
35425;DHT22;21537;48.226;16.400;2022-08-24T11:05:56;36.90;83.20
35425;DHT22;21537;48.226;16.400;2022-08-24T11:11:09;37.60;78.30
35425;DHT22;21537;48.226;16.400;2022-08-24T11:13:38;37.90;77.40
35425;DHT22;21537;48.226;16.400;2022-08-24T11:16:23;38.50;76.00
35425;DHT22;21537;48.226;16.400;2022-08-24T11:18:53;40.00;73.60
35425;DHT22;21537;48.226;16.400;2022-08-24T11:21:38;39.50;71.20
35425;DHT22;21537;48.226;16.400;2022-08-24T11:24:10;39.00;71.30
35425;DHT22;21537;48.226;16.400;2022-08-24T11:27:07;37.90;71.70
35425;DHT22;21537;48.226;16.400;2022-08-24T11:32:46;35.60;75.90
35425;DHT22;21537;48.226;16.400;2022-08-24T11:38:23;37.20;73.90
35425;DHT22;21537;48.226;16.400;2022-08-24T11:41:05;38.20;72.10
35425;DHT22;21537;48.226;16.400;2022-08-24T11:52:38;41.20;66.50
35425;DHT22;21537;48.226;16.400;2022-08-24T11:59:28;39.60;66.30
35425;DHT22;21537;48.226;16.400;2022-08-24T12:01:32;39.10;66.50
35425;DHT22;21537;48.226;16.400;2022-08-24T12:04:45;38.50;67.50
35425;DHT22;21537;48.226;16.400;2022-08-24T12:10:09;37.10;69.00
35425;DHT22;21537;48.226;16.400;2022-08-24T12:12:50;37.50;68.50
35425;DHT22;21537;48.226;16.400;2022-08-24T12:20:47;39.30;65.40
35425;DHT22;21537;48.226;16.400;2022-08-24T12:25:41;39.30;64.50
35425;DHT22;21537;48.226;16.400;2022-08-24T12:28:41;39.00;65.10
35425;DHT22;21537;48.226;16.400;2022-08-24T12:31:22;38.80;65.20
35425;DHT22;21537;48.226;16.400;2022-08-24T12:33:57;38.80;64.70
35425;DHT22;21537;48.226;16.400;2022-08-24T12:36:35;38.90;65.20
35425;DHT22;21537;48.226;16.400;2022-08-24T12:39:15;39.40;64.60
35425;DHT22;21537;48.226;16.400;2022-08-24T12:42:15;39.70;64.20
35425;DHT22;21537;48.226;16.400;2022-08-24T12:44:49;39.80;63.60
35425;DHT22;21537;48.226;16.400;2022-08-24T12:50:13;40.40;62.70
35425;DHT22;21537;48.226;16.400;2022-08-24T12:58:07;41.00;62.00
35425;DHT22;21537;48.226;16.400;2022-08-24T13:00:45;41.00;61.90
35425;DHT22;21537;48.226;16.400;2022-08-24T13:03:32;40.80;61.80
35425;DHT22;21537;48.226;16.400;2022-08-24T13:06:24;41.00;61.40
35425;DHT22;21537;48.226;16.400;2022-08-24T13:08:52;41.20;61.20
35425;DHT22;21537;48.226;16.400;2022-08-24T13:11:31;41.40;60.60
35425;DHT22;21537;48.226;16.400;2022-08-24T13:14:19;42.00;60.40
35425;DHT22;21537;48.226;16.400;2022-08-24T13:17:08;42.60;59.80
35425;DHT22;21537;48.226;16.400;2022-08-24T13:19:43;42.30;59.70
35425;DHT22;21537;48.226;16.400;2022-08-24T13:29:43;39.70;61.50
35425;DHT22;21537;48.226;16.400;2022-08-24T13:32:20;40.00;61.10
35425;DHT22;21537;48.226;16.400;2022-08-24T13:34:48;40.40;60.60
35425;DHT22;21537;48.226;16.400;2022-08-24T13:37:19;40.40;60.80
35425;DHT22;21537;48.226;16.400;2022-08-24T13:40:16;40.20;61.00
35425;DHT22;21537;48.226;16.400;2022-08-24T13:43:11;39.10;62.60
35425;DHT22;21537;48.226;16.400;2022-08-24T13:45:49;37.50;65.10
35425;DHT22;21537;48.226;16.400;2022-08-24T13:51:43;36.60;66.50
35425;DHT22;21537;48.226;16.400;2022-08-24T13:54:31;35.00;69.00
35425;DHT22;21537;48.226;16.400;2022-08-24T14:05:16;34.90;69.30
35425;DHT22;21537;48.226;16.400;2022-08-24T14:11:09;34.90;68.40
35425;DHT22;21537;48.226;16.400;2022-08-24T14:19:58;32.40;73.30
35425;DHT22;21537;48.226;16.400;2022-08-24T14:22:55;32.00;74.50
35425;DHT22;21537;48.226;16.400;2022-08-24T14:25:28;31.50;75.00
35425;DHT22;21537;48.226;16.400;2022-08-24T14:35:29;31.60;74.70
35425;DHT22;21537;48.226;16.400;2022-08-24T14:52:22;33.20;72.90
35425;DHT22;21537;48.226;16.400;2022-08-24T15:06:52;31.50;75.60
35425;DHT22;21537;48.226;16.400;2022-08-24T15:11:51;31.70;75.30
35425;DHT22;21537;48.226;16.400;2022-08-24T15:14:39;31.50;76.10
35425;DHT22;21537;48.226;16.400;2022-08-24T15:17:11;31.00;76.90
35425;DHT22;21537;48.226;16.400;2022-08-24T15:19:43;30.60;78.00
35425;DHT22;21537;48.226;16.400;2022-08-24T15:22:25;30.20;78.90
35425;DHT22;21537;48.226;16.400;2022-08-24T15:27:38;30.00;80.00
35425;DHT22;21537;48.226;16.400;2022-08-24T15:30:06;29.90;80.40
35425;DHT22;21537;48.226;16.400;2022-08-24T15:35:26;30.00;80.50
35425;DHT22;21537;48.226;16.400;2022-08-24T15:37:52;29.80;80.90
35425;DHT22;21537;48.226;16.400;2022-08-24T15:40:27;29.80;81.00
35425;DHT22;21537;48.226;16.400;2022-08-24T15:43:01;29.80;80.90
35425;DHT22;21537;48.226;16.400;2022-08-24T15:45:29;29.70;80.30
35425;DHT22;21537;48.226;16.400;2022-08-24T15:47:56;29.80;80.40
35425;DHT22;21537;48.226;16.400;2022-08-24T15:50:31;29.60;80.50
35425;DHT22;21537;48.226;16.400;2022-08-24T15:53:06;29.50;81.10
35425;DHT22;21537;48.226;16.400;2022-08-24T15:55:45;29.30;81.80
35425;DHT22;21537;48.226;16.400;2022-08-24T15:58:34;29.20;82.10
35425;DHT22;21537;48.226;16.400;2022-08-24T16:03:59;29.00;83.30
35425;DHT22;21537;48.226;16.400;2022-08-24T16:11:40;28.90;83.30
35425;DHT22;21537;48.226;16.400;2022-08-24T16:14:33;28.80;84.00
35425;DHT22;21537;48.226;16.400;2022-08-24T16:19:50;28.60;85.20
35425;DHT22;21537;48.226;16.400;2022-08-24T16:22:38;28.50;85.50
35425;DHT22;21537;48.226;16.400;2022-08-24T16:33:09;27.70;88.90
35425;DHT22;21537;48.226;16.400;2022-08-24T16:35:36;27.50;89.40
35425;DHT22;21537;48.226;16.400;2022-08-24T16:38:02;27.40;90.10
35425;DHT22;21537;48.226;16.400;2022-08-24T16:40:29;27.20;90.20
35425;DHT22;21537;48.226;16.400;2022-08-24T16:42:56;27.10;90.40
35425;DHT22;21537;48.226;16.400;2022-08-24T16:45:23;27.00;90.70
35425;DHT22;21537;48.226;16.400;2022-08-24T16:47:49;26.90;91.10
35425;DHT22;21537;48.226;16.400;2022-08-24T16:50:21;26.80;91.30
35425;DHT22;21537;48.226;16.400;2022-08-24T16:52:47;26.70;91.70
35425;DHT22;21537;48.226;16.400;2022-08-24T16:55:13;26.50;92.00
35425;DHT22;21537;48.226;16.400;2022-08-24T16:57:39;26.40;92.50
35425;DHT22;21537;48.226;16.400;2022-08-24T17:00:08;26.40;92.90
35425;DHT22;21537;48.226;16.400;2022-08-24T17:02:35;26.30;93.40
35425;DHT22;21537;48.226;16.400;2022-08-24T17:05:02;26.10;93.90
35425;DHT22;21537;48.226;16.400;2022-08-24T17:07:31;26.10;94.40
35425;DHT22;21537;48.226;16.400;2022-08-24T17:09:59;26.00;95.00
35425;DHT22;21537;48.226;16.400;2022-08-24T17:12:26;25.90;95.50
35425;DHT22;21537;48.226;16.400;2022-08-24T17:14:52;25.80;96.10
35425;DHT22;21537;48.226;16.400;2022-08-24T17:17:19;25.70;96.70
35425;DHT22;21537;48.226;16.400;2022-08-24T17:19:47;25.70;97.30
35425;DHT22;21537;48.226;16.400;2022-08-24T17:22:14;25.60;97.80
35425;DHT22;21537;48.226;16.400;2022-08-24T17:24:40;25.60;98.30
35425;DHT22;21537;48.226;16.400;2022-08-24T17:27:05;25.50;98.80
35425;DHT22;21537;48.226;16.400;2022-08-24T17:29:31;25.50;99.50
35425;DHT22;21537;48.226;16.400;2022-08-24T17:31:57;25.40;99.90
35425;DHT22;21537;48.226;16.400;2022-08-24T17:34:24;25.30;99.90
35425;DHT22;21537;48.226;16.400;2022-08-24T17:36:53;25.20;99.90
35425;DHT22;21537;48.226;16.400;2022-08-24T17:39:21;25.20;99.90
35425;DHT22;21537;48.226;16.400;2022-08-24T17:41:55;25.10;99.90
35425;DHT22;21537;48.226;16.400;2022-08-24T17:44:23;25.00;99.90
35425;DHT22;21537;48.226;16.400;2022-08-24T17:46:52;25.00;99.90
35425;DHT22;21537;48.226;16.400;2022-08-24T17:49:19;24.90;99.90
35425;DHT22;21537;48.226;16.400;2022-08-24T17:51:45;24.80;99.90
35425;DHT22;21537;48.226;16.400;2022-08-24T17:54:11;24.80;99.90
35425;DHT22;21537;48.226;16.400;2022-08-24T17:56:38;24.70;99.90
35425;DHT22;21537;48.226;16.400;2022-08-24T17:59:06;24.60;99.90
35425;DHT22;21537;48.226;16.400;2022-08-24T18:01:55;24.60;99.90
35425;DHT22;21537;48.226;16.400;2022-08-24T18:04:24;24.50;99.90
35425;DHT22;21537;48.226;16.400;2022-08-24T18:06:52;24.50;99.90
35425;DHT22;21537;48.226;16.400;2022-08-24T18:12:21;24.50;99.90
35425;DHT22;21537;48.226;16.400;2022-08-24T18:14:48;24.40;99.90
35425;DHT22;21537;48.226;16.400;2022-08-24T18:17:34;24.40;99.90
35425;DHT22;21537;48.226;16.400;2022-08-24T18:20:02;24.40;99.90
35425;DHT22;21537;48.226;16.400;2022-08-24T18:22:27;24.30;99.90
35425;DHT22;21537;48.226;16.400;2022-08-24T18:24:54;24.30;99.90
35425;DHT22;21537;48.226;16.400;2022-08-24T18:27:30;24.30;99.90
35425;DHT22;21537;48.226;16.400;2022-08-24T18:29:58;24.30;99.90
35425;DHT22;21537;48.226;16.400;2022-08-24T18:32:25;24.20;99.90
35425;DHT22;21537;48.226;16.400;2022-08-24T18:34:51;24.20;99.90
35425;DHT22;21537;48.226;16.400;2022-08-24T18:37:17;24.10;99.90
35425;DHT22;21537;48.226;16.400;2022-08-24T18:39:42;24.00;99.90
35425;DHT22;21537;48.226;16.400;2022-08-24T18:42:10;23.90;99.90
35425;DHT22;21537;48.226;16.400;2022-08-24T18:44:37;23.90;99.90
35425;DHT22;21537;48.226;16.400;2022-08-24T18:47:03;23.80;99.90
35425;DHT22;21537;48.226;16.400;2022-08-24T18:49:29;23.80;99.90
35425;DHT22;21537;48.226;16.400;2022-08-24T18:51:55;23.70;99.90
35425;DHT22;21537;48.226;16.400;2022-08-24T18:54:24;23.70;99.90
35425;DHT22;21537;48.226;16.400;2022-08-24T18:56:51;23.70;99.90
35425;DHT22;21537;48.226;16.400;2022-08-24T18:59:19;23.60;99.90
35425;DHT22;21537;48.226;16.400;2022-08-24T19:01:47;23.60;99.90
35425;DHT22;21537;48.226;16.400;2022-08-24T19:04:34;23.50;99.90
35425;DHT22;21537;48.226;16.400;2022-08-24T19:07:02;23.50;99.90
35425;DHT22;21537;48.226;16.400;2022-08-24T19:09:28;23.50;99.90
35425;DHT22;21537;48.226;16.400;2022-08-24T19:11:54;23.40;99.90
35425;DHT22;21537;48.226;16.400;2022-08-24T19:14:20;23.50;99.90
35425;DHT22;21537;48.226;16.400;2022-08-24T19:16:45;23.50;99.90
35425;DHT22;21537;48.226;16.400;2022-08-24T19:19:11;23.40;99.90
35425;DHT22;21537;48.226;16.400;2022-08-24T19:21:37;23.50;99.90
35425;DHT22;21537;48.226;16.400;2022-08-24T19:24:06;23.50;99.90
35425;DHT22;21537;48.226;16.400;2022-08-24T19:26:34;23.40;99.90
35425;DHT22;21537;48.226;16.400;2022-08-24T19:29:00;23.40;99.90